Sunflower Gold — JD2460 — position and weather

sailwx.info

Track history (hours):
 
Tides and Currents Weather Stations Pressure Air Temp Water Temp Dewpoint Dewpoint Depression Visibility Wind Speed Wind Dir Waves Ship Positions

Sunflower Gold

Last reported at 2016-Sep-26 11:32 UTC. Time now 2016-Sep-27 10:24 UTC.
Position N 34°34' E 134°48'.

Length 166 m; draft 5.8 m.

Type: Passenger vessel. MMSI: 431000331.

Date/timePositionNaut miles runAvg speedWind from/ knotsBaromVisibWave heightAir tempDewpointWater temp
2016-Sep-26 11:32N 34°34' E 134°48'25 8.3
2016-Sep-26 08:33N 34°42' E 135°17'0 0.0
2016-Sep-26 01:21N 34°42' E 135°17'0 0.0
2016-Sep-26 00:33N 34°42' E 135°17'0 0.0
2016-Sep-25 21:33N 34°42' E 135°17'22 0.6
2016-Sep-24 12:15N 34°35' E 134°52'2212.4
2016-Sep-24 10:30N 34°42' E 135°17'0 0.0
2016-Sep-24 09:30N 34°42' E 135°17'0 0.0
2016-Sep-24 03:30N 34°42' E 135°17'0 0.0
2016-Sep-24 02:30N 34°42' E 135°17'0 0.0
2016-Sep-24 01:30N 34°42' E 135°17'0 0.0
2016-Sep-24 00:30N 34°42' E 135°17'0 0.0
2016-Sep-22 04:29N 34°42' E 135°17'0 0.0
2016-Sep-22 03:29N 34°42' E 135°17'0 0.0
2016-Sep-22 00:29N 34°42' E 135°17'0 0.0
2016-Sep-21 23:29N 34°42' E 135°17'0 0.0
2016-Sep-21 22:29N 34°42' E 135°17'4 0.1
2016-Sep-20 02:33N 34°38' E 135°16'4 1.3
2016-Sep-19 23:23N 34°42' E 135°17'30 7.7
2016-Sep-19 19:32N 34°30' E 134°44'23 0.7
2016-Sep-18 10:33N 34°37' E 135°11'7 7.4
2016-Sep-18 09:33N 34°42' E 135°17'0 0.0
2016-Sep-18 02:22N 34°42' E 135°17'0 0.0
2016-Sep-18 01:28N 34°42' E 135°17'0 0.0
2016-Sep-18 00:28N 34°42' E 135°17'2 0.9
2016-Sep-17 22:33N 34°40' E 135°18'1514.5
2016-Sep-17 21:33N 34°37' E 135°01'6 0.2
2016-Sep-16 12:09N 34°36' E 134°54'  
Track history (hours):
 
Tides and Currents Weather Stations Pressure Air Temp Water Temp Dewpoint Dewpoint Depression Visibility Wind Speed Wind Dir Waves Ship Positions

Sunflower Gold

Last reported at 2016-Sep-26 11:32 UTC. Time now 2016-Sep-27 10:24 UTC.
Position N 34°34' E 134°48'.

Length 166 m; draft 5.8 m.

Type: Passenger vessel. MMSI: 431000331.

Date/timePositionNaut miles runAvg speedWind from/ knotsBaromVisibWave heightAir tempDewpointWater temp
2016-Sep-26 11:32N 34°34' E 134°48'25 8.3
2016-Sep-26 08:33N 34°42' E 135°17'0 0.0
2016-Sep-26 01:21N 34°42' E 135°17'0 0.0
2016-Sep-26 00:33N 34°42' E 135°17'0 0.0
2016-Sep-25 21:33N 34°42' E 135°17'22 0.6
2016-Sep-24 12:15N 34°35' E 134°52'2212.4
2016-Sep-24 10:30N 34°42' E 135°17'0 0.0
2016-Sep-24 09:30N 34°42' E 135°17'0 0.0
2016-Sep-24 03:30N 34°42' E 135°17'0 0.0
2016-Sep-24 02:30N 34°42' E 135°17'0 0.0
2016-Sep-24 01:30N 34°42' E 135°17'0 0.0
2016-Sep-24 00:30N 34°42' E 135°17'0 0.0
2016-Sep-22 04:29N 34°42' E 135°17'0 0.0
2016-Sep-22 03:29N 34°42' E 135°17'0 0.0
2016-Sep-22 00:29N 34°42' E 135°17'0 0.0
2016-Sep-21 23:29N 34°42' E 135°17'0 0.0
2016-Sep-21 22:29N 34°42' E 135°17'4 0.1
2016-Sep-20 02:33N 34°38' E 135°16'4 1.3
2016-Sep-19 23:23N 34°42' E 135°17'30 7.7
2016-Sep-19 19:32N 34°30' E 134°44'23 0.7
2016-Sep-18 10:33N 34°37' E 135°11'7 7.4
2016-Sep-18 09:33N 34°42' E 135°17'0 0.0
2016-Sep-18 02:22N 34°42' E 135°17'0 0.0
2016-Sep-18 01:28N 34°42' E 135°17'0 0.0
2016-Sep-18 00:28N 34°42' E 135°17'2 0.9
2016-Sep-17 22:33N 34°40' E 135°18'1514.5
2016-Sep-17 21:33N 34°37' E 135°01'6 0.2
2016-Sep-16 12:09N 34°36' E 134°54'  

Dump ship's entire track history